Meteorología y climatología de Navarra
Datos de la estación - Meteo Navarra

Estación de Carrascal GN

Altitud 568 m.


Datos desde el 02/08/2020 hasta el 03/08/2020 en horario solar
Los datos son PROVISIONALES

Anterior Página 1 de 1 Siguiente Descargar: Formato para Excel 2000 o superior   Formato csv   Formato para OpenOffice Calc
Fecha Temperatura Humedad relativa Radiación global Insolación Precipitación Vel. viento 10 m Vel. viento 10 m Dir. viento 10 m
ºC % W/m² s l/m² m/s km/h º
02/08/2020 0:00 17.6 84 0.0 0 0.0 13.9 50.1 13
02/08/2020 0:10 17.6 83 0.0 0 0.0 13.3 47.7 15
02/08/2020 0:20 17.7 83 0.0 0 0.0 12.8 46.0 15
02/08/2020 0:30 17.6 82 0.0 0 0.0 12.9 46.4 12
02/08/2020 0:40 17.5 83 0.0 0 0.0 12.3 44.2 11
02/08/2020 0:50 17.4 83 0.0 0 0.0 13.1 47.1 12
02/08/2020 1:00 17.5 82 0.0 0 0.0 12.7 45.6 13
02/08/2020 1:10 17.4 82 0.0 0 0.0 13.2 47.5 12
02/08/2020 1:20 17.4 83 0.0 0 0.0 12.9 46.6 13
02/08/2020 1:30 17.3 83 0.0 0 0.0 12.3 44.3 14
02/08/2020 1:40 17.2 83 0.0 0 0.0 13.2 47.5 14
02/08/2020 1:50 17.1 84 0.0 0 0.0 13.1 47.3 13
02/08/2020 2:00 17.0 84 0.0 0 0.0 12.3 44.4 14
02/08/2020 2:10 17.0 83 0.0 0 0.0 11.6 41.8 14
02/08/2020 2:20 17.0 81 0.0 0 0.0 10.2 36.9 20
02/08/2020 2:30 17.0 80 0.0 0 0.0 9.7 34.9 24
02/08/2020 2:40 17.0 79 0.0 0 0.0 10.2 36.8 30
02/08/2020 2:50 16.9 79 0.0 0 0.0 11.5 41.2 23
02/08/2020 3:00 17.0 80 0.0 0 0.0 11.4 41.0 20
02/08/2020 3:10 16.7 81 0.0 0 0.0 10.9 39.1 23
02/08/2020 3:20 16.5 82 0.0 0 0.0 11.2 40.3 26
02/08/2020 3:30 16.7 83 0.0 0 0.0 11.1 39.9 30
02/08/2020 3:40 16.7 83 0.0 0 0.0 10.7 38.6 28
02/08/2020 3:50 16.6 83 0.0 0 0.0 10.2 36.6 32
02/08/2020 4:00 16.6 83 0.0 0 0.0 10.7 38.6 30
02/08/2020 4:10 16.7 82 0.0 0 0.0 11.0 39.7 21
02/08/2020 4:20 16.7 83 0.0 0 0.0 10.8 38.7 19
02/08/2020 4:30 16.7 83 0.0 0 0.0 9.8 35.2 22
02/08/2020 4:40 16.7 84 0.0 0 0.0 10.3 37.2 19
02/08/2020 4:50 16.7 85 0.0 0 0.0 11.0 39.4 13
02/08/2020 5:00 16.5 86 0.0 0 0.0 10.4 37.3 17
02/08/2020 5:10 16.5 87 0.0 0 0.0 9.1 32.6 20
02/08/2020 5:20 16.4 86 0.0 0 0.0 10.3 37.0 18
02/08/2020 5:30 16.4 87 14.8 0 0.0 9.9 35.6 19
02/08/2020 5:40 16.4 87 24.6 0 0.0 9.7 35.0 15
02/08/2020 5:50 16.4 86 28.6 0 0.0 9.1 32.9 21
02/08/2020 6:00 16.6 86 35.6 0 0.0 9.6 34.5 19
02/08/2020 6:10 16.8 85 51.2 0 0.0 10.5 37.8 20
02/08/2020 6:20 16.9 83 52.8 0 0.0 11.3 40.8 19
02/08/2020 6:30 16.8 85 59.3 0 0.0 10.5 37.8 18
02/08/2020 6:40 16.5 86 57.8 0 0.0 10.1 36.4 22
02/08/2020 6:50 16.6 85 66.5 0 0.0 9.8 35.4 20
02/08/2020 7:00 16.7 83 67.3 0 0.0 9.7 34.9 21
02/08/2020 7:10 16.9 82 77.0 0 0.0 10.7 38.7 19
02/08/2020 7:20 17.1 81 103.5 16 0.0 11.0 39.5 15
02/08/2020 7:30 17.4 79 109.1 12 0.0 11.7 42.0 21
02/08/2020 7:40 17.2 80 121.3 32 0.0 10.7 38.6 22
02/08/2020 7:50 17.5 79 146.6 0 0.0 11.3 40.8 22
02/08/2020 8:00 17.5 78 178.0 18 0.0 11.6 41.6 20
02/08/2020 8:10 18.0 76 424.9 424 0.0 13.2 47.5 17
02/08/2020 8:20 18.3 72 343.0 254 0.0 11.9 42.7 15
02/08/2020 8:30 17.8 73 162.7 0 0.0 11.3 40.8 20
02/08/2020 8:40 18.4 73 462.5 370 0.0 11.8 42.3 17
02/08/2020 8:50 19.1 69 589.0 578 0.0 12.9 46.3 15
02/08/2020 9:00 19.3 68 581.6 532 0.0 13.6 49.1 11
02/08/2020 9:10 18.8 69 482.9 422 0.0 14.0 50.3 11
02/08/2020 9:20 19.5 65 609.8 564 0.0 13.0 46.9 14
02/08/2020 9:30 19.6 62 680.4 574 0.0 13.2 47.4 17
02/08/2020 9:40 20.0 61 780.9 600 0.0 14.5 52.2 16
02/08/2020 9:50 20.5 60 722.2 600 0.0 12.3 44.2 21
02/08/2020 10:00 20.6 60 724.9 600 0.0 12.3 44.1 32
02/08/2020 10:10 20.5 59 723.8 600 0.0 12.4 44.6 27
02/08/2020 10:20 21.0 57 781.6 600 0.0 11.6 41.7 25
02/08/2020 10:30 21.3 57 843.0 582 0.0 12.0 43.2 21
02/08/2020 10:40 21.4 57 887.0 600 0.0 11.7 42.0 33
02/08/2020 10:50 21.2 57 890.0 600 0.0 12.9 46.4 15
02/08/2020 11:00 21.5 57 904.0 600 0.0 12.7 45.8 15
02/08/2020 11:10 21.7 57 933.0 598 0.0 12.9 46.4 8
02/08/2020 11:20 21.4 58 876.0 542 0.0 13.2 47.5 7
02/08/2020 11:30 21.5 57 967.0 600 0.0 12.7 45.7 9
02/08/2020 11:40 21.8 55 904.0 600 0.0 11.2 40.4 22
02/08/2020 11:50 21.6 54 877.0 600 0.0 12.8 46.0 11
02/08/2020 12:00 21.8 54 814.0 600 0.0 12.1 43.6 11
02/08/2020 12:10 21.6 54 920.0 574 0.0 11.0 39.7 15
02/08/2020 12:20 22.1 53 991.0 588 0.0 11.5 41.2 8
02/08/2020 12:30 22.6 53 1027.0 600 0.0 11.7 42.0 2
02/08/2020 12:40 22.5 53 944.0 600 0.0 12.3 44.4 3
02/08/2020 12:50 22.2 53 1021.0 600 0.0 11.9 42.7 12
02/08/2020 13:00 22.1 54 809.0 600 0.0 11.3 40.8 17
02/08/2020 13:10 22.0 54 718.5 600 0.0 11.7 41.9 10
02/08/2020 13:20 21.6 55 574.0 600 0.0 11.6 41.8 14
02/08/2020 13:30 21.1 56 550.1 576 0.0 11.8 42.4 9
02/08/2020 13:40 21.6 55 613.2 600 0.0 12.8 46.2 6
02/08/2020 13:50 20.8 57 452.9 220 0.0 13.4 48.3 13
02/08/2020 14:00 20.2 59 359.1 0 0.0 12.8 45.9 10
02/08/2020 14:10 20.4 59 334.7 0 0.0 12.6 45.3 6
02/08/2020 14:20 20.0 60 477.8 418 0.0 13.4 48.4 9
02/08/2020 14:30 20.5 58 628.8 600 0.0 13.6 49.1 9
02/08/2020 14:40 20.8 57 641.3 600 0.0 13.0 46.7 9
02/08/2020 14:50 21.0 57 718.0 600 0.0 13.0 46.9 9
02/08/2020 15:00 21.0 58 771.6 600 0.0 12.3 44.4 18
02/08/2020 15:10 21.7 55 569.2 600 0.0 11.5 41.4 17
02/08/2020 15:20 20.8 59 467.0 600 0.0 13.3 47.7 7
02/08/2020 15:30 20.6 58 373.2 254 0.0 12.0 43.3 15
02/08/2020 15:40 19.8 60 339.9 0 0.0 12.8 46.0 17
02/08/2020 15:50 19.8 59 292.2 0 0.0 12.1 43.4 14
02/08/2020 16:00 19.7 60 245.5 0 0.0 11.5 41.5 11
02/08/2020 16:10 19.6 61 238.8 0 0.0 11.8 42.5 10
02/08/2020 16:20 19.6 61 257.2 0 0.0 12.0 43.3 10
02/08/2020 16:30 19.6 61 255.9 0 0.0 11.9 42.9 7
02/08/2020 16:40 19.6 61 291.7 492 0.0 11.9 42.7 6
02/08/2020 16:50 19.8 61 250.2 144 0.0 11.6 41.8 7
02/08/2020 17:00 19.6 61 310.7 476 0.0 12.1 43.4 5
02/08/2020 17:10 19.9 60 472.8 600 0.0 12.7 45.9 5
02/08/2020 17:20 19.6 61 386.4 596 0.0 12.4 44.8 13
02/08/2020 17:30 19.2 63 278.6 476 0.0 12.7 45.6 16
02/08/2020 17:40 18.9 63 292.8 590 0.0 11.5 41.5 25
02/08/2020 17:50 18.5 63 230.0 584 0.0 12.5 45.1 17
02/08/2020 18:00 18.1 64 169.9 598 0.0 10.7 38.4 18
02/08/2020 18:10 17.9 66 135.4 356 0.0 10.4 37.3 15
02/08/2020 18:20 17.8 67 85.8 128 0.0 10.7 38.4 13
02/08/2020 18:30 17.5 68 55.9 0 0.0 10.8 38.8 12
02/08/2020 18:40 17.3 70 51.7 0 0.0 9.7 34.8 8
02/08/2020 18:50 17.2 71 48.7 0 0.0 9.4 34.0 2
02/08/2020 19:00 17.0 72 35.1 0 0.0 9.9 35.6 7
02/08/2020 19:10 17.0 72 11.3 0 0.0 10.1 36.2 11
02/08/2020 19:20 16.9 71 0.0 0 0.0 10.4 37.4 12
02/08/2020 19:30 16.8 70 0.0 0 0.0 11.2 40.1 11
02/08/2020 19:40 16.7 70 0.0 0 0.0 9.4 33.8 14
02/08/2020 19:50 16.6 70 0.0 0 0.0 8.5 30.7 14
02/08/2020 20:00 16.5 71 0.0 0 0.0 8.7 31.3 11
02/08/2020 20:10 16.4 72 0.0 0 0.0 8.1 29.2 9
02/08/2020 20:20 16.2 74 0.0 0 0.0 8.1 29.1 10
02/08/2020 20:30 16.1 75 0.0 0 0.0 8.0 28.9 10
02/08/2020 20:40 16.1 76 0.0 0 0.0 7.4 26.5 10
02/08/2020 20:50 16.1 77 0.0 0 0.0 8.2 29.6 8
02/08/2020 21:00 15.8 77 0.0 0 0.0 8.9 31.9 6
02/08/2020 21:10 15.9 77 0.0 0 0.0 9.2 33.1 6
02/08/2020 21:20 15.8 78 0.0 0 0.0 8.5 30.6 8
02/08/2020 21:30 15.8 78 0.0 0 0.0 8.2 29.4 11
02/08/2020 21:40 15.6 79 0.0 0 0.0 7.2 26.0 12
02/08/2020 21:50 15.5 79 0.0 0 0.0 6.3 22.5 12
02/08/2020 22:00 15.5 79 0.0 0 0.0 6.7 24.1 9
02/08/2020 22:10 15.5 79 0.0 0 0.0 7.7 27.6 12
02/08/2020 22:20 15.7 79 0.0 0 0.0 7.7 27.6 16
02/08/2020 22:30 15.7 79 0.0 0 0.0 6.8 24.6 18
02/08/2020 22:40 15.8 78 0.0 0 0.0 8.3 29.8 14
02/08/2020 22:50 15.8 77 0.0 0 0.0 9.1 32.7 12
02/08/2020 23:00 15.9 77 0.0 0 0.0 9.0 32.4 9
02/08/2020 23:10 15.8 77 0.0 0 0.0 8.0 28.7 5
02/08/2020 23:20 15.7 78 0.0 0 0.0 8.9 31.9 5
02/08/2020 23:30 15.6 79 0.0 0 0.0 7.9 28.4 7
02/08/2020 23:40 15.5 78 0.0 0 0.0 7.9 28.5 7
02/08/2020 23:50 15.5 78 0.0 0 0.0 9.1 32.7 9
Anterior Página 1 de 1 Siguiente

NOTA: Tipo de datos según el color:
   - Valores diarios o 10 minutos correctos
   - Valores diarios calculados a partir de un número de datos 10 minutos menor que 144 y mayor que 120, o de un número de datos semihorarios menor que 48 y mayor que 40 (caso de las estaciones de INTIA y del Ministerio)
   - Valores diez minutos estimados


Contacto        Enlaces        Aviso legal